sensor_id;sensor_type;location;lat;lon;timestamp;P1;durP1;ratioP1;P2;durP2;ratioP2
52210;SDS011;38179;52.756;6.906;2022-09-09T00:00:41;25.05;;;21.45;;
52210;SDS011;38179;52.756;6.906;2022-09-09T00:03:17;22.67;;;20.88;;
52210;SDS011;38179;52.756;6.906;2022-09-09T00:08:53;24.17;;;22.17;;
52210;SDS011;38179;52.756;6.906;2022-09-09T00:11:32;25.77;;;23.52;;
52210;SDS011;38179;52.756;6.906;2022-09-09T00:17:12;23.00;;;21.05;;
52210;SDS011;38179;52.756;6.906;2022-09-09T00:19:48;22.88;;;21.02;;
52210;SDS011;38179;52.756;6.906;2022-09-09T00:22:20;23.15;;;21.10;;
52210;SDS011;38179;52.756;6.906;2022-09-09T00:27:22;23.58;;;21.58;;
52210;SDS011;38179;52.756;6.906;2022-09-09T00:32:58;25.33;;;22.90;;
52210;SDS011;38179;52.756;6.906;2022-09-09T00:37:56;24.48;;;22.23;;
52210;SDS011;38179;52.756;6.906;2022-09-09T00:40:34;24.02;;;21.98;;
52210;SDS011;38179;52.756;6.906;2022-09-09T00:43:08;24.05;;;21.80;;
52210;SDS011;38179;52.756;6.906;2022-09-09T00:49:05;24.45;;;22.35;;
52210;SDS011;38179;52.756;6.906;2022-09-09T00:51:45;22.85;;;21.02;;
52210;SDS011;38179;52.756;6.906;2022-09-09T00:57:29;23.25;;;21.15;;
52210;SDS011;38179;52.756;6.906;2022-09-09T01:00:16;23.48;;;21.38;;
52210;SDS011;38179;52.756;6.906;2022-09-09T01:11:22;22.35;;;20.30;;
52210;SDS011;38179;52.756;6.906;2022-09-09T01:16:51;22.42;;;20.48;;
52210;SDS011;38179;52.756;6.906;2022-09-09T01:19:27;23.33;;;21.33;;
52210;SDS011;38179;52.756;6.906;2022-09-09T01:22:20;23.27;;;20.88;;
52210;SDS011;38179;52.756;6.906;2022-09-09T01:25:18;22.55;;;20.75;;
52210;SDS011;38179;52.756;6.906;2022-09-09T01:27:51;21.85;;;19.95;;
52210;SDS011;38179;52.756;6.906;2022-09-09T01:30:21;21.88;;;19.58;;
52210;SDS011;38179;52.756;6.906;2022-09-09T01:32:50;21.98;;;20.17;;
52210;SDS011;38179;52.756;6.906;2022-09-09T01:35:39;21.48;;;19.77;;
52210;SDS011;38179;52.756;6.906;2022-09-09T01:38:19;23.73;;;21.27;;
52210;SDS011;38179;52.756;6.906;2022-09-09T01:40:46;21.63;;;19.60;;
52210;SDS011;38179;52.756;6.906;2022-09-09T01:43:14;22.45;;;20.45;;
52210;SDS011;38179;52.756;6.906;2022-09-09T01:45:40;21.80;;;20.10;;
52210;SDS011;38179;52.756;6.906;2022-09-09T01:48:09;21.67;;;19.98;;
52210;SDS011;38179;52.756;6.906;2022-09-09T01:50:35;22.63;;;20.58;;
52210;SDS011;38179;52.756;6.906;2022-09-09T01:53:01;22.10;;;20.35;;
52210;SDS011;38179;52.756;6.906;2022-09-09T01:55:52;22.45;;;20.48;;
52210;SDS011;38179;52.756;6.906;2022-09-09T01:59:37;22.20;;;20.38;;
52210;SDS011;38179;52.756;6.906;2022-09-09T02:09:48;22.73;;;20.73;;
52210;SDS011;38179;52.756;6.906;2022-09-09T02:12:21;22.05;;;20.15;;
52210;SDS011;38179;52.756;6.906;2022-09-09T02:14:56;22.30;;;20.27;;
52210;SDS011;38179;52.756;6.906;2022-09-09T02:17:36;22.35;;;20.25;;
52210;SDS011;38179;52.756;6.906;2022-09-09T02:20:07;22.40;;;20.40;;
52210;SDS011;38179;52.756;6.906;2022-09-09T02:22:38;22.50;;;20.58;;
52210;SDS011;38179;52.756;6.906;2022-09-09T02:25:08;22.95;;;20.98;;
52210;SDS011;38179;52.756;6.906;2022-09-09T02:27:37;22.77;;;20.92;;
52210;SDS011;38179;52.756;6.906;2022-09-09T02:30:06;23.02;;;21.05;;
52210;SDS011;38179;52.756;6.906;2022-09-09T02:32:32;22.73;;;20.90;;
52210;SDS011;38179;52.756;6.906;2022-09-09T02:35:05;22.43;;;20.23;;
52210;SDS011;38179;52.756;6.906;2022-09-09T02:37:38;22.83;;;21.02;;
52210;SDS011;38179;52.756;6.906;2022-09-09T02:40:07;22.60;;;20.65;;
52210;SDS011;38179;52.756;6.906;2022-09-09T02:42:39;22.88;;;20.70;;
52210;SDS011;38179;52.756;6.906;2022-09-09T02:45:10;23.33;;;21.38;;
52210;SDS011;38179;52.756;6.906;2022-09-09T02:47:41;22.58;;;20.77;;
52210;SDS011;38179;52.756;6.906;2022-09-09T02:50:16;22.88;;;20.80;;
52210;SDS011;38179;52.756;6.906;2022-09-09T02:55:40;22.35;;;20.27;;
52210;SDS011;38179;52.756;6.906;2022-09-09T02:58:12;20.83;;;19.13;;
52210;SDS011;38179;52.756;6.906;2022-09-09T03:00:48;21.73;;;20.02;;
52210;SDS011;38179;52.756;6.906;2022-09-09T03:03:16;21.20;;;19.50;;
52210;SDS011;38179;52.756;6.906;2022-09-09T03:05:43;20.35;;;18.75;;
52210;SDS011;38179;52.756;6.906;2022-09-09T03:08:10;20.08;;;18.48;;
52210;SDS011;38179;52.756;6.906;2022-09-09T03:10:38;18.95;;;17.45;;
52210;SDS011;38179;52.756;6.906;2022-09-09T03:13:04;20.08;;;18.48;;
52210;SDS011;38179;52.756;6.906;2022-09-09T03:15:31;20.02;;;18.42;;
52210;SDS011;38179;52.756;6.906;2022-09-09T03:17:58;19.20;;;17.70;;
52210;SDS011;38179;52.756;6.906;2022-09-09T03:20:25;20.15;;;18.35;;
52210;SDS011;38179;52.756;6.906;2022-09-09T03:22:55;18.50;;;17.10;;
52210;SDS011;38179;52.756;6.906;2022-09-09T03:25:22;18.67;;;17.25;;
52210;SDS011;38179;52.756;6.906;2022-09-09T03:27:52;18.80;;;17.38;;
52210;SDS011;38179;52.756;6.906;2022-09-09T03:30:23;18.02;;;16.73;;
52210;SDS011;38179;52.756;6.906;2022-09-09T03:32:51;18.05;;;16.75;;
52210;SDS011;38179;52.756;6.906;2022-09-09T03:35:23;18.20;;;16.73;;
52210;SDS011;38179;52.756;6.906;2022-09-09T03:37:48;18.25;;;16.85;;
52210;SDS011;38179;52.756;6.906;2022-09-09T03:40:14;19.60;;;17.83;;
52210;SDS011;38179;52.756;6.906;2022-09-09T03:42:40;18.90;;;17.50;;
52210;SDS011;38179;52.756;6.906;2022-09-09T03:45:07;20.65;;;18.75;;
52210;SDS011;38179;52.756;6.906;2022-09-09T03:47:34;21.73;;;19.85;;
52210;SDS011;38179;52.756;6.906;2022-09-09T03:50:00;22.35;;;20.55;;
52210;SDS011;38179;52.756;6.906;2022-09-09T03:52:26;23.25;;;21.27;;
52210;SDS011;38179;52.756;6.906;2022-09-09T03:54:53;23.92;;;21.83;;
52210;SDS011;38179;52.756;6.906;2022-09-09T03:57:19;24.52;;;22.05;;
52210;SDS011;38179;52.756;6.906;2022-09-09T03:59:46;26.08;;;23.80;;
52210;SDS011;38179;52.756;6.906;2022-09-09T04:02:13;25.65;;;23.02;;
52210;SDS011;38179;52.756;6.906;2022-09-09T04:04:39;26.08;;;23.55;;
52210;SDS011;38179;52.756;6.906;2022-09-09T04:07:05;25.30;;;22.98;;
52210;SDS011;38179;52.756;6.906;2022-09-09T04:09:32;26.00;;;23.80;;
52210;SDS011;38179;52.756;6.906;2022-09-09T04:11:59;25.45;;;23.08;;
52210;SDS011;38179;52.756;6.906;2022-09-09T04:14:25;25.00;;;22.58;;
52210;SDS011;38179;52.756;6.906;2022-09-09T04:16:54;25.13;;;22.88;;
52210;SDS011;38179;52.756;6.906;2022-09-09T04:19:20;24.10;;;22.10;;
52210;SDS011;38179;52.756;6.906;2022-09-09T04:21:46;24.65;;;22.65;;
52210;SDS011;38179;52.756;6.906;2022-09-09T04:24:15;25.42;;;23.38;;
52210;SDS011;38179;52.756;6.906;2022-09-09T04:26:41;25.33;;;22.98;;
52210;SDS011;38179;52.756;6.906;2022-09-09T04:29:07;24.83;;;22.70;;
52210;SDS011;38179;52.756;6.906;2022-09-09T04:31:33;24.85;;;22.65;;
52210;SDS011;38179;52.756;6.906;2022-09-09T04:33:59;24.80;;;22.60;;
52210;SDS011;38179;52.756;6.906;2022-09-09T04:36:30;24.23;;;22.02;;
52210;SDS011;38179;52.756;6.906;2022-09-09T04:38:58;24.77;;;22.63;;
52210;SDS011;38179;52.756;6.906;2022-09-09T04:41:24;24.67;;;22.58;;
52210;SDS011;38179;52.756;6.906;2022-09-09T04:43:50;24.23;;;21.98;;
52210;SDS011;38179;52.756;6.906;2022-09-09T04:46:20;24.27;;;22.17;;
52210;SDS011;38179;52.756;6.906;2022-09-09T04:51:15;23.55;;;21.50;;
52210;SDS011;38179;52.756;6.906;2022-09-09T04:53:41;24.67;;;22.55;;
52210;SDS011;38179;52.756;6.906;2022-09-09T04:56:17;23.83;;;21.83;;
52210;SDS011;38179;52.756;6.906;2022-09-09T04:58:43;24.55;;;22.35;;
52210;SDS011;38179;52.756;6.906;2022-09-09T05:01:15;23.83;;;21.85;;
52210;SDS011;38179;52.756;6.906;2022-09-09T05:03:42;23.70;;;21.80;;
52210;SDS011;38179;52.756;6.906;2022-09-09T05:06:14;23.90;;;21.63;;
52210;SDS011;38179;52.756;6.906;2022-09-09T05:08:42;24.48;;;22.13;;
52210;SDS011;38179;52.756;6.906;2022-09-09T05:11:19;25.00;;;22.77;;
52210;SDS011;38179;52.756;6.906;2022-09-09T05:13:45;23.45;;;21.55;;
52210;SDS011;38179;52.756;6.906;2022-09-09T05:16:12;25.77;;;23.58;;
52210;SDS011;38179;52.756;6.906;2022-09-09T05:18:39;24.85;;;22.52;;
52210;SDS011;38179;52.756;6.906;2022-09-09T05:21:11;24.90;;;22.70;;
52210;SDS011;38179;52.756;6.906;2022-09-09T05:23:38;24.73;;;22.55;;
52210;SDS011;38179;52.756;6.906;2022-09-09T05:26:05;24.23;;;22.23;;
52210;SDS011;38179;52.756;6.906;2022-09-09T05:28:33;24.33;;;22.02;;
52210;SDS011;38179;52.756;6.906;2022-09-09T05:31:02;24.50;;;22.07;;
52210;SDS011;38179;52.756;6.906;2022-09-09T05:33:38;24.40;;;22.30;;
52210;SDS011;38179;52.756;6.906;2022-09-09T05:36:10;24.30;;;22.17;;
52210;SDS011;38179;52.756;6.906;2022-09-09T05:38:40;23.27;;;21.45;;
52210;SDS011;38179;52.756;6.906;2022-09-09T05:41:07;23.13;;;21.23;;
52210;SDS011;38179;52.756;6.906;2022-09-09T05:43:37;24.23;;;22.08;;
52210;SDS011;38179;52.756;6.906;2022-09-09T05:46:07;23.42;;;21.15;;
52210;SDS011;38179;52.756;6.906;2022-09-09T05:48:36;23.85;;;21.92;;
52210;SDS011;38179;52.756;6.906;2022-09-09T05:51:04;23.02;;;21.13;;
52210;SDS011;38179;52.756;6.906;2022-09-09T05:53:32;23.88;;;21.80;;
52210;SDS011;38179;52.756;6.906;2022-09-09T05:56:03;23.02;;;21.02;;
52210;SDS011;38179;52.756;6.906;2022-09-09T05:58:31;23.45;;;21.55;;
52210;SDS011;38179;52.756;6.906;2022-09-09T06:01:04;24.05;;;21.92;;
52210;SDS011;38179;52.756;6.906;2022-09-09T06:03:36;22.58;;;20.65;;
52210;SDS011;38179;52.756;6.906;2022-09-09T06:06:04;23.35;;;21.45;;
52210;SDS011;38179;52.756;6.906;2022-09-09T06:08:35;23.20;;;21.23;;
52210;SDS011;38179;52.756;6.906;2022-09-09T06:11:07;22.92;;;20.92;;
52210;SDS011;38179;52.756;6.906;2022-09-09T06:13:39;22.65;;;20.65;;
52210;SDS011;38179;52.756;6.906;2022-09-09T06:16:06;23.38;;;21.20;;
52210;SDS011;38179;52.756;6.906;2022-09-09T06:18:37;22.75;;;20.70;;
52210;SDS011;38179;52.756;6.906;2022-09-09T06:21:04;23.85;;;21.52;;
52210;SDS011;38179;52.756;6.906;2022-09-09T06:23:32;20.10;;;18.52;;
52210;SDS011;38179;52.756;6.906;2022-09-09T06:28:34;21.13;;;19.10;;
52210;SDS011;38179;52.756;6.906;2022-09-09T06:31:02;21.33;;;19.70;;
52210;SDS011;38179;52.756;6.906;2022-09-09T06:33:32;22.30;;;20.40;;
52210;SDS011;38179;52.756;6.906;2022-09-09T06:36:00;22.00;;;20.20;;
52210;SDS011;38179;52.756;6.906;2022-09-09T06:38:27;23.00;;;21.10;;
52210;SDS011;38179;52.756;6.906;2022-09-09T06:40:56;23.70;;;21.60;;
52210;SDS011;38179;52.756;6.906;2022-09-09T06:43:26;23.70;;;21.60;;
52210;SDS011;38179;52.756;6.906;2022-09-09T06:46:05;23.48;;;21.52;;
52210;SDS011;38179;52.756;6.906;2022-09-09T06:48:33;23.17;;;21.27;;
52210;SDS011;38179;52.756;6.906;2022-09-09T06:51:09;23.73;;;21.45;;
52210;SDS011;38179;52.756;6.906;2022-09-09T06:53:37;23.45;;;21.55;;
52210;SDS011;38179;52.756;6.906;2022-09-09T06:58:36;23.88;;;21.77;;
52210;SDS011;38179;52.756;6.906;2022-09-09T07:01:09;23.83;;;21.83;;
52210;SDS011;38179;52.756;6.906;2022-09-09T07:03:40;23.75;;;21.70;;
52210;SDS011;38179;52.756;6.906;2022-09-09T07:06:08;24.45;;;22.27;;
52210;SDS011;38179;52.756;6.906;2022-09-09T07:08:39;24.00;;;21.90;;
52210;SDS011;38179;52.756;6.906;2022-09-09T07:13:42;24.08;;;22.05;;
52210;SDS011;38179;52.756;6.906;2022-09-09T07:16:34;24.47;;;22.07;;
52210;SDS011;38179;52.756;6.906;2022-09-09T07:19:21;24.83;;;22.52;;
52210;SDS011;38179;52.756;6.906;2022-09-09T07:25:02;23.75;;;21.70;;
52210;SDS011;38179;52.756;6.906;2022-09-09T07:28:27;24.65;;;22.35;;
52210;SDS011;38179;52.756;6.906;2022-09-09T07:44:39;24.88;;;22.58;;
52210;SDS011;38179;52.756;6.906;2022-09-09T07:47:13;25.38;;;23.00;;
52210;SDS011;38179;52.756;6.906;2022-09-09T08:01:40;25.27;;;22.90;;
52210;SDS011;38179;52.756;6.906;2022-09-09T08:04:15;24.77;;;22.48;;
52210;SDS011;38179;52.756;6.906;2022-09-09T08:09:17;24.95;;;22.73;;
52210;SDS011;38179;52.756;6.906;2022-09-09T08:11:44;25.50;;;23.30;;
52210;SDS011;38179;52.756;6.906;2022-09-09T08:14:11;25.17;;;22.70;;
52210;SDS011;38179;52.756;6.906;2022-09-09T08:16:42;25.63;;;23.38;;
52210;SDS011;38179;52.756;6.906;2022-09-09T08:19:10;24.83;;;22.83;;
52210;SDS011;38179;52.756;6.906;2022-09-09T08:21:37;25.55;;;23.08;;
52210;SDS011;38179;52.756;6.906;2022-09-09T08:24:09;26.23;;;24.02;;
52210;SDS011;38179;52.756;6.906;2022-09-09T08:26:37;25.45;;;23.05;;
52210;SDS011;38179;52.756;6.906;2022-09-09T08:29:11;25.83;;;23.42;;
52210;SDS011;38179;52.756;6.906;2022-09-09T08:31:46;24.60;;;22.40;;
52210;SDS011;38179;52.756;6.906;2022-09-09T08:34:24;25.40;;;22.85;;
52210;SDS011;38179;52.756;6.906;2022-09-09T08:37:35;25.02;;;22.52;;
52210;SDS011;38179;52.756;6.906;2022-09-09T08:40:32;24.83;;;22.73;;
52210;SDS011;38179;52.756;6.906;2022-09-09T08:43:28;23.90;;;21.23;;
52210;SDS011;38179;52.756;6.906;2022-09-09T08:46:04;22.60;;;20.60;;
52210;SDS011;38179;52.756;6.906;2022-09-09T08:48:41;22.58;;;20.40;;
52210;SDS011;38179;52.756;6.906;2022-09-09T08:51:09;23.23;;;20.95;;
52210;SDS011;38179;52.756;6.906;2022-09-09T08:53:46;22.27;;;20.05;;
52210;SDS011;38179;52.756;6.906;2022-09-09T08:56:16;22.67;;;20.67;;
52210;SDS011;38179;52.756;6.906;2022-09-09T09:01:50;22.20;;;20.00;;
52210;SDS011;38179;52.756;6.906;2022-09-09T09:10:42;22.20;;;19.98;;
52210;SDS011;38179;52.756;6.906;2022-09-09T09:12:48;21.73;;;19.85;;
52210;SDS011;38179;52.756;6.906;2022-09-09T09:15:19;23.08;;;20.48;;
52210;SDS011;38179;52.756;6.906;2022-09-09T09:17:48;21.60;;;19.60;;
52210;SDS011;38179;52.756;6.906;2022-09-09T09:20:15;22.15;;;20.10;;
52210;SDS011;38179;52.756;6.906;2022-09-09T09:30:35;22.27;;;20.27;;
52210;SDS011;38179;52.756;6.906;2022-09-09T09:33:25;22.27;;;19.60;;
52210;SDS011;38179;52.756;6.906;2022-09-09T09:35:58;22.92;;;20.50;;
52210;SDS011;38179;52.756;6.906;2022-09-09T09:38:25;21.80;;;19.60;;
52210;SDS011;38179;52.756;6.906;2022-09-09T09:40:57;22.05;;;19.98;;
52210;SDS011;38179;52.756;6.906;2022-09-09T09:43:35;22.52;;;20.38;;
52210;SDS011;38179;52.756;6.906;2022-09-09T09:46:05;21.25;;;18.98;;
52210;SDS011;38179;52.756;6.906;2022-09-09T09:48:44;21.13;;;19.05;;
52210;SDS011;38179;52.756;6.906;2022-09-09T09:51:21;21.52;;;19.23;;
52210;SDS011;38179;52.756;6.906;2022-09-09T09:53:49;20.98;;;19.08;;
52210;SDS011;38179;52.756;6.906;2022-09-09T09:56:18;21.50;;;19.52;;
52210;SDS011;38179;52.756;6.906;2022-09-09T09:58:54;21.40;;;19.33;;
52210;SDS011;38179;52.756;6.906;2022-09-09T10:01:29;21.65;;;19.45;;
52210;SDS011;38179;52.756;6.906;2022-09-09T10:03:59;22.40;;;20.25;;
52210;SDS011;38179;52.756;6.906;2022-09-09T10:06:40;21.20;;;19.20;;
52210;SDS011;38179;52.756;6.906;2022-09-09T10:09:25;21.40;;;19.35;;
52210;SDS011;38179;52.756;6.906;2022-09-09T10:17:47;21.50;;;19.70;;
52210;SDS011;38179;52.756;6.906;2022-09-09T10:26:20;21.35;;;19.45;;
52210;SDS011;38179;52.756;6.906;2022-09-09T10:31:54;21.25;;;19.35;;
52210;SDS011;38179;52.756;6.906;2022-09-09T10:37:41;21.90;;;19.73;;
52210;SDS011;38179;52.756;6.906;2022-09-09T10:48:13;20.17;;;18.52;;
52210;SDS011;38179;52.756;6.906;2022-09-09T10:51:00;20.80;;;19.15;;
52210;SDS011;38179;52.756;6.906;2022-09-09T10:56:07;21.98;;;19.58;;
52210;SDS011;38179;52.756;6.906;2022-09-09T10:58:58;21.15;;;19.25;;
52210;SDS011;38179;52.756;6.906;2022-09-09T11:01:26;20.48;;;18.60;;
52210;SDS011;38179;52.756;6.906;2022-09-09T11:03:59;20.55;;;18.75;;
52210;SDS011;38179;52.756;6.906;2022-09-09T11:06:32;21.05;;;19.25;;
52210;SDS011;38179;52.756;6.906;2022-09-09T11:09:04;21.40;;;19.27;;
52210;SDS011;38179;52.756;6.906;2022-09-09T11:11:37;21.03;;;19.30;;
52210;SDS011;38179;52.756;6.906;2022-09-09T11:14:13;21.08;;;19.35;;
52210;SDS011;38179;52.756;6.906;2022-09-09T11:16:50;21.40;;;19.42;;
52210;SDS011;38179;52.756;6.906;2022-09-09T11:19:22;21.75;;;19.98;;
52210;SDS011;38179;52.756;6.906;2022-09-09T11:22:00;19.83;;;18.35;;
52210;SDS011;38179;52.756;6.906;2022-09-09T11:24:36;20.25;;;18.55;;
52210;SDS011;38179;52.756;6.906;2022-09-09T11:30:17;21.35;;;19.38;;
52210;SDS011;38179;52.756;6.906;2022-09-09T11:40:41;20.63;;;18.85;;
52210;SDS011;38179;52.756;6.906;2022-09-09T11:43:11;22.13;;;20.17;;
52210;SDS011;38179;52.756;6.906;2022-09-09T11:45:40;21.48;;;19.48;;
52210;SDS011;38179;52.756;6.906;2022-09-09T11:48:22;21.03;;;19.43;;
52210;SDS011;38179;52.756;6.906;2022-09-09T11:51:05;20.60;;;18.90;;
52210;SDS011;38179;52.756;6.906;2022-09-09T11:53:34;20.50;;;18.77;;
52210;SDS011;38179;52.756;6.906;2022-09-09T11:58:27;21.05;;;19.27;;
52210;SDS011;38179;52.756;6.906;2022-09-09T12:00:57;20.38;;;18.67;;
52210;SDS011;38179;52.756;6.906;2022-09-09T12:06:25;21.00;;;19.17;;
52210;SDS011;38179;52.756;6.906;2022-09-09T12:09:43;20.92;;;19.33;;
52210;SDS011;38179;52.756;6.906;2022-09-09T12:11:43;21.27;;;19.38;;
52210;SDS011;38179;52.756;6.906;2022-09-09T12:14:18;21.13;;;19.30;;
52210;SDS011;38179;52.756;6.906;2022-09-09T12:17:09;20.98;;;19.27;;
52210;SDS011;38179;52.756;6.906;2022-09-09T12:19:59;21.00;;;19.13;;
52210;SDS011;38179;52.756;6.906;2022-09-09T12:22:40;21.60;;;19.35;;
52210;SDS011;38179;52.756;6.906;2022-09-09T12:33:33;21.23;;;19.52;;
52210;SDS011;38179;52.756;6.906;2022-09-09T12:36:02;21.23;;;19.48;;
52210;SDS011;38179;52.756;6.906;2022-09-09T12:38:32;21.30;;;19.25;;
52210;SDS011;38179;52.756;6.906;2022-09-09T12:41:01;21.25;;;19.55;;
52210;SDS011;38179;52.756;6.906;2022-09-09T12:43:28;21.95;;;19.95;;
52210;SDS011;38179;52.756;6.906;2022-09-09T12:45:59;21.20;;;19.45;;
52210;SDS011;38179;52.756;6.906;2022-09-09T12:48:33;21.27;;;19.42;;
52210;SDS011;38179;52.756;6.906;2022-09-09T12:51:44;22.02;;;20.13;;
52210;SDS011;38179;52.756;6.906;2022-09-09T12:54:13;21.23;;;19.20;;
52210;SDS011;38179;52.756;6.906;2022-09-09T12:59:25;21.13;;;19.23;;
52210;SDS011;38179;52.756;6.906;2022-09-09T13:02:00;21.38;;;19.60;;
52210;SDS011;38179;52.756;6.906;2022-09-09T13:04:27;20.52;;;18.92;;
52210;SDS011;38179;52.756;6.906;2022-09-09T13:06:53;21.45;;;19.48;;
52210;SDS011;38179;52.756;6.906;2022-09-09T13:09:20;21.02;;;19.23;;
52210;SDS011;38179;52.756;6.906;2022-09-09T13:11:49;21.80;;;19.63;;
52210;SDS011;38179;52.756;6.906;2022-09-09T13:14:19;20.65;;;18.83;;
52210;SDS011;38179;52.756;6.906;2022-09-09T13:16:54;22.92;;;20.45;;
52210;SDS011;38179;52.756;6.906;2022-09-09T13:19:22;21.50;;;19.52;;
52210;SDS011;38179;52.756;6.906;2022-09-09T13:21:52;21.65;;;19.58;;
52210;SDS011;38179;52.756;6.906;2022-09-09T13:24:23;21.10;;;19.25;;
52210;SDS011;38179;52.756;6.906;2022-09-09T13:26:59;20.98;;;19.23;;
52210;SDS011;38179;52.756;6.906;2022-09-09T13:29:27;20.88;;;19.17;;
52210;SDS011;38179;52.756;6.906;2022-09-09T13:31:53;21.15;;;19.25;;
52210;SDS011;38179;52.756;6.906;2022-09-09T13:34:29;21.40;;;19.60;;
52210;SDS011;38179;52.756;6.906;2022-09-09T13:37:04;20.95;;;19.15;;
52210;SDS011;38179;52.756;6.906;2022-09-09T13:39:35;20.75;;;18.85;;
52210;SDS011;38179;52.756;6.906;2022-09-09T13:42:04;20.90;;;19.20;;
52210;SDS011;38179;52.756;6.906;2022-09-09T13:44:34;20.70;;;18.90;;
52210;SDS011;38179;52.756;6.906;2022-09-09T13:49:48;20.30;;;18.60;;
52210;SDS011;38179;52.756;6.906;2022-09-09T13:52:15;20.15;;;18.73;;
52210;SDS011;38179;52.756;6.906;2022-09-09T13:54:47;19.85;;;18.45;;
52210;SDS011;38179;52.756;6.906;2022-09-09T13:57:19;19.95;;;18.42;;
52210;SDS011;38179;52.756;6.906;2022-09-09T13:59:50;20.85;;;19.15;;
52210;SDS011;38179;52.756;6.906;2022-09-09T14:02:17;21.52;;;19.42;;
52210;SDS011;38179;52.756;6.906;2022-09-09T14:04:44;20.45;;;18.75;;
52210;SDS011;38179;52.756;6.906;2022-09-09T14:07:13;21.10;;;19.30;;
52210;SDS011;38179;52.756;6.906;2022-09-09T14:09:41;20.90;;;19.10;;
52210;SDS011;38179;52.756;6.906;2022-09-09T14:12:11;19.83;;;18.35;;
52210;SDS011;38179;52.756;6.906;2022-09-09T14:14:40;20.58;;;18.88;;
52210;SDS011;38179;52.756;6.906;2022-09-09T14:17:08;19.08;;;17.70;;
52210;SDS011;38179;52.756;6.906;2022-09-09T14:19:35;19.75;;;18.33;;
52210;SDS011;38179;52.756;6.906;2022-09-09T14:22:06;20.23;;;18.65;;
52210;SDS011;38179;52.756;6.906;2022-09-09T14:24:35;19.80;;;18.15;;
52210;SDS011;38179;52.756;6.906;2022-09-09T14:27:02;19.60;;;18.02;;
52210;SDS011;38179;52.756;6.906;2022-09-09T14:29:28;19.55;;;17.95;;
52210;SDS011;38179;52.756;6.906;2022-09-09T14:31:53;19.67;;;18.27;;
52210;SDS011;38179;52.756;6.906;2022-09-09T14:34:19;20.13;;;18.65;;
52210;SDS011;38179;52.756;6.906;2022-09-09T14:36:45;19.45;;;17.95;;
52210;SDS011;38179;52.756;6.906;2022-09-09T14:39:11;19.55;;;18.05;;
52210;SDS011;38179;52.756;6.906;2022-09-09T14:41:37;19.95;;;18.25;;
52210;SDS011;38179;52.756;6.906;2022-09-09T14:44:03;19.15;;;17.73;;
52210;SDS011;38179;52.756;6.906;2022-09-09T14:46:29;19.13;;;17.65;;
52210;SDS011;38179;52.756;6.906;2022-09-09T14:48:56;19.33;;;18.02;;
52210;SDS011;38179;52.756;6.906;2022-09-09T14:51:23;19.77;;;18.27;;
52210;SDS011;38179;52.756;6.906;2022-09-09T14:53:53;19.30;;;17.48;;
52210;SDS011;38179;52.756;6.906;2022-09-09T14:56:21;19.45;;;18.02;;
52210;SDS011;38179;52.756;6.906;2022-09-09T14:58:49;20.30;;;18.45;;
52210;SDS011;38179;52.756;6.906;2022-09-09T15:01:17;19.92;;;18.42;;
52210;SDS011;38179;52.756;6.906;2022-09-09T15:03:48;20.33;;;18.73;;
52210;SDS011;38179;52.756;6.906;2022-09-09T15:06:19;20.40;;;18.88;;
52210;SDS011;38179;52.756;6.906;2022-09-09T15:08:46;20.05;;;18.55;;
52210;SDS011;38179;52.756;6.906;2022-09-09T15:11:13;20.38;;;18.77;;
52210;SDS011;38179;52.756;6.906;2022-09-09T15:13:40;20.20;;;18.33;;
52210;SDS011;38179;52.756;6.906;2022-09-09T15:16:08;19.80;;;18.30;;
52210;SDS011;38179;52.756;6.906;2022-09-09T15:18:42;20.02;;;18.60;;
52210;SDS011;38179;52.756;6.906;2022-09-09T15:21:14;21.02;;;19.23;;
52210;SDS011;38179;52.756;6.906;2022-09-09T15:23:41;20.00;;;18.60;;
52210;SDS011;38179;52.756;6.906;2022-09-09T15:26:09;20.17;;;18.73;;
52210;SDS011;38179;52.756;6.906;2022-09-09T15:28:36;20.48;;;18.77;;
52210;SDS011;38179;52.756;6.906;2022-09-09T15:31:08;20.07;;;18.47;;
52210;SDS011;38179;52.756;6.906;2022-09-09T15:33:37;19.58;;;17.98;;
52210;SDS011;38179;52.756;6.906;2022-09-09T15:36:14;20.10;;;18.50;;
52210;SDS011;38179;52.756;6.906;2022-09-09T15:38:43;20.30;;;18.80;;
52210;SDS011;38179;52.756;6.906;2022-09-09T15:41:09;19.88;;;18.33;;
52210;SDS011;38179;52.756;6.906;2022-09-09T15:43:35;20.60;;;18.90;;
52210;SDS011;38179;52.756;6.906;2022-09-09T15:46:21;19.73;;;18.23;;
52210;SDS011;38179;52.756;6.906;2022-09-09T15:49:10;19.67;;;18.17;;
52210;SDS011;38179;52.756;6.906;2022-09-09T15:51:46;19.65;;;18.25;;
52210;SDS011;38179;52.756;6.906;2022-09-09T15:54:19;20.38;;;18.60;;
52210;SDS011;38179;52.756;6.906;2022-09-09T15:56:50;20.40;;;18.90;;
52210;SDS011;38179;52.756;6.906;2022-09-09T15:59:17;20.33;;;18.73;;
52210;SDS011;38179;52.756;6.906;2022-09-09T16:01:43;19.48;;;17.88;;
52210;SDS011;38179;52.756;6.906;2022-09-09T16:04:09;20.00;;;18.50;;
52210;SDS011;38179;52.756;6.906;2022-09-09T16:06:36;20.60;;;19.08;;
52210;SDS011;38179;52.756;6.906;2022-09-09T16:09:03;21.02;;;19.38;;
52210;SDS011;38179;52.756;6.906;2022-09-09T16:11:31;20.08;;;18.58;;
52210;SDS011;38179;52.756;6.906;2022-09-09T16:14:01;21.02;;;19.23;;
52210;SDS011;38179;52.756;6.906;2022-09-09T16:16:28;21.10;;;19.40;;
52210;SDS011;38179;52.756;6.906;2022-09-09T16:18:56;20.65;;;19.05;;
52210;SDS011;38179;52.756;6.906;2022-09-09T16:23:57;20.27;;;18.70;;
52210;SDS011;38179;52.756;6.906;2022-09-09T16:26:27;20.88;;;19.02;;
52210;SDS011;38179;52.756;6.906;2022-09-09T16:28:55;20.60;;;18.95;;
52210;SDS011;38179;52.756;6.906;2022-09-09T16:31:24;19.95;;;18.45;;
52210;SDS011;38179;52.756;6.906;2022-09-09T16:33:50;20.85;;;19.05;;
52210;SDS011;38179;52.756;6.906;2022-09-09T16:36:23;20.27;;;18.70;;
52210;SDS011;38179;52.756;6.906;2022-09-09T16:38:55;20.70;;;18.90;;
52210;SDS011;38179;52.756;6.906;2022-09-09T16:41:26;20.75;;;19.15;;
52210;SDS011;38179;52.756;6.906;2022-09-09T16:43:57;20.15;;;18.65;;
52210;SDS011;38179;52.756;6.906;2022-09-09T16:46:35;20.45;;;18.92;;
52210;SDS011;38179;52.756;6.906;2022-09-09T16:49:04;20.05;;;18.27;;
52210;SDS011;38179;52.756;6.906;2022-09-09T16:51:32;20.63;;;18.92;;
52210;SDS011;38179;52.756;6.906;2022-09-09T16:54:01;20.08;;;18.58;;
52210;SDS011;38179;52.756;6.906;2022-09-09T16:56:30;20.25;;;18.75;;
52210;SDS011;38179;52.756;6.906;2022-09-09T16:59:00;20.10;;;18.50;;
52210;SDS011;38179;52.756;6.906;2022-09-09T17:01:29;19.92;;;18.33;;
52210;SDS011;38179;52.756;6.906;2022-09-09T17:03:57;19.48;;;17.95;;
52210;SDS011;38179;52.756;6.906;2022-09-09T17:06:26;20.15;;;18.67;;
52210;SDS011;38179;52.756;6.906;2022-09-09T17:08:54;20.48;;;18.65;;
52210;SDS011;38179;52.756;6.906;2022-09-09T17:11:25;20.80;;;19.10;;
52210;SDS011;38179;52.756;6.906;2022-09-09T17:13:54;20.38;;;18.70;;
52210;SDS011;38179;52.756;6.906;2022-09-09T17:16:21;19.95;;;18.38;;
52210;SDS011;38179;52.756;6.906;2022-09-09T17:18:52;20.08;;;18.58;;
52210;SDS011;38179;52.756;6.906;2022-09-09T17:21:20;20.38;;;18.88;;
52210;SDS011;38179;52.756;6.906;2022-09-09T17:23:48;21.40;;;19.30;;
52210;SDS011;38179;52.756;6.906;2022-09-09T17:26:16;20.15;;;18.33;;
52210;SDS011;38179;52.756;6.906;2022-09-09T17:28:44;20.38;;;18.88;;